sensor_id;sensor_type;location;lat;lon;timestamp;temperature;humidity
18593;DHT22;9426;54.118;17.948;2022-08-21T00:01:47;18.90;99.90
18593;DHT22;9426;54.118;17.948;2022-08-21T00:07:11;18.90;99.90
18593;DHT22;9426;54.118;17.948;2022-08-21T00:12:35;18.90;99.90
18593;DHT22;9426;54.118;17.948;2022-08-21T00:18:00;18.90;99.90
18593;DHT22;9426;54.118;17.948;2022-08-21T00:23:23;18.90;99.90
18593;DHT22;9426;54.118;17.948;2022-08-21T00:28:46;18.90;99.90
18593;DHT22;9426;54.118;17.948;2022-08-21T00:34:13;19.00;99.90
18593;DHT22;9426;54.118;17.948;2022-08-21T00:39:36;19.00;99.90
18593;DHT22;9426;54.118;17.948;2022-08-21T00:45:01;19.00;99.90
18593;DHT22;9426;54.118;17.948;2022-08-21T00:50:30;19.00;99.90
18593;DHT22;9426;54.118;17.948;2022-08-21T00:55:56;19.00;99.90
18593;DHT22;9426;54.118;17.948;2022-08-21T01:01:20;19.00;99.90
18593;DHT22;9426;54.118;17.948;2022-08-21T01:06:45;19.00;99.90
18593;DHT22;9426;54.118;17.948;2022-08-21T01:12:09;19.00;99.90
18593;DHT22;9426;54.118;17.948;2022-08-21T01:17:33;19.00;99.90
18593;DHT22;9426;54.118;17.948;2022-08-21T01:22:59;19.00;99.90
18593;DHT22;9426;54.118;17.948;2022-08-21T01:28:23;19.00;99.90
18593;DHT22;9426;54.118;17.948;2022-08-21T01:33:47;19.00;99.90
18593;DHT22;9426;54.118;17.948;2022-08-21T01:39:12;19.00;99.90
18593;DHT22;9426;54.118;17.948;2022-08-21T01:44:36;18.90;99.90
18593;DHT22;9426;54.118;17.948;2022-08-21T01:50:00;18.90;99.90
18593;DHT22;9426;54.118;17.948;2022-08-21T01:55:25;18.90;99.90
18593;DHT22;9426;54.118;17.948;2022-08-21T02:00:48;18.90;99.90
18593;DHT22;9426;54.118;17.948;2022-08-21T02:06:15;18.80;99.90
18593;DHT22;9426;54.118;17.948;2022-08-21T02:11:41;18.90;99.90
18593;DHT22;9426;54.118;17.948;2022-08-21T02:17:05;18.80;99.90
18593;DHT22;9426;54.118;17.948;2022-08-21T02:22:29;18.80;99.90
18593;DHT22;9426;54.118;17.948;2022-08-21T02:27:54;18.80;99.90
18593;DHT22;9426;54.118;17.948;2022-08-21T02:33:18;18.80;99.90
18593;DHT22;9426;54.118;17.948;2022-08-21T02:38:43;18.80;99.90
18593;DHT22;9426;54.118;17.948;2022-08-21T02:44:09;18.80;99.90
18593;DHT22;9426;54.118;17.948;2022-08-21T02:49:32;18.80;99.90
18593;DHT22;9426;54.118;17.948;2022-08-21T02:54:56;18.80;99.90
18593;DHT22;9426;54.118;17.948;2022-08-21T03:00:22;18.70;99.90
18593;DHT22;9426;54.118;17.948;2022-08-21T03:05:45;18.80;99.90
18593;DHT22;9426;54.118;17.948;2022-08-21T03:11:09;18.70;99.90
18593;DHT22;9426;54.118;17.948;2022-08-21T03:16:34;18.70;99.90
18593;DHT22;9426;54.118;17.948;2022-08-21T03:21:58;18.60;99.90
18593;DHT22;9426;54.118;17.948;2022-08-21T03:27:21;18.60;99.90
18593;DHT22;9426;54.118;17.948;2022-08-21T03:32:46;18.60;99.90
18593;DHT22;9426;54.118;17.948;2022-08-21T03:38:09;18.60;99.90
18593;DHT22;9426;54.118;17.948;2022-08-21T03:43:34;18.60;99.90
18593;DHT22;9426;54.118;17.948;2022-08-21T03:48:59;18.50;99.90
18593;DHT22;9426;54.118;17.948;2022-08-21T03:54:22;18.60;99.90
18593;DHT22;9426;54.118;17.948;2022-08-21T03:59:46;18.60;99.90
18593;DHT22;9426;54.118;17.948;2022-08-21T04:05:12;18.60;99.90
18593;DHT22;9426;54.118;17.948;2022-08-21T04:10:37;18.60;99.90
18593;DHT22;9426;54.118;17.948;2022-08-21T04:16:01;18.60;99.90
18593;DHT22;9426;54.118;17.948;2022-08-21T04:21:26;18.60;99.90
18593;DHT22;9426;54.118;17.948;2022-08-21T04:26:49;18.70;99.90
18593;DHT22;9426;54.118;17.948;2022-08-21T04:32:13;18.70;99.90
18593;DHT22;9426;54.118;17.948;2022-08-21T04:37:38;18.70;99.90
18593;DHT22;9426;54.118;17.948;2022-08-21T04:43:07;18.70;99.90
18593;DHT22;9426;54.118;17.948;2022-08-21T04:48:30;18.70;99.90
18593;DHT22;9426;54.118;17.948;2022-08-21T04:54:00;18.70;99.90
18593;DHT22;9426;54.118;17.948;2022-08-21T04:59:26;18.70;99.90
18593;DHT22;9426;54.118;17.948;2022-08-21T05:04:52;18.70;99.90
18593;DHT22;9426;54.118;17.948;2022-08-21T05:10:18;18.80;99.90
18593;DHT22;9426;54.118;17.948;2022-08-21T05:15:42;18.90;99.90
18593;DHT22;9426;54.118;17.948;2022-08-21T05:21:06;18.90;99.90
18593;DHT22;9426;54.118;17.948;2022-08-21T05:26:31;18.90;99.90
18593;DHT22;9426;54.118;17.948;2022-08-21T05:31:55;18.80;99.90
18593;DHT22;9426;54.118;17.948;2022-08-21T05:37:18;18.70;99.90
18593;DHT22;9426;54.118;17.948;2022-08-21T05:42:43;18.80;99.90
18593;DHT22;9426;54.118;17.948;2022-08-21T05:48:07;18.70;99.90
18593;DHT22;9426;54.118;17.948;2022-08-21T05:53:31;18.80;99.90
18593;DHT22;9426;54.118;17.948;2022-08-21T05:58:56;18.80;99.90
18593;DHT22;9426;54.118;17.948;2022-08-21T06:04:19;19.00;99.90
18593;DHT22;9426;54.118;17.948;2022-08-21T06:09:42;19.00;99.90
18593;DHT22;9426;54.118;17.948;2022-08-21T06:15:08;19.00;99.90
18593;DHT22;9426;54.118;17.948;2022-08-21T06:20:32;19.10;99.90
18593;DHT22;9426;54.118;17.948;2022-08-21T06:25:55;19.20;99.90
18593;DHT22;9426;54.118;17.948;2022-08-21T06:31:22;19.30;99.90
18593;DHT22;9426;54.118;17.948;2022-08-21T06:36:47;19.40;99.90
18593;DHT22;9426;54.118;17.948;2022-08-21T06:42:13;19.30;99.90
18593;DHT22;9426;54.118;17.948;2022-08-21T06:47:40;19.10;99.90
18593;DHT22;9426;54.118;17.948;2022-08-21T06:53:05;19.10;99.90
18593;DHT22;9426;54.118;17.948;2022-08-21T06:58:29;19.10;99.90
18593;DHT22;9426;54.118;17.948;2022-08-21T07:03:54;19.20;99.90
18593;DHT22;9426;54.118;17.948;2022-08-21T07:09:17;19.20;99.90
18593;DHT22;9426;54.118;17.948;2022-08-21T07:14:43;19.20;99.90
18593;DHT22;9426;54.118;17.948;2022-08-21T07:20:08;19.10;99.90
18593;DHT22;9426;54.118;17.948;2022-08-21T07:25:32;19.00;99.90
18593;DHT22;9426;54.118;17.948;2022-08-21T07:30:57;18.90;99.90
18593;DHT22;9426;54.118;17.948;2022-08-21T07:36:22;18.90;99.90
18593;DHT22;9426;54.118;17.948;2022-08-21T07:41:45;18.80;99.90
18593;DHT22;9426;54.118;17.948;2022-08-21T07:47:09;18.80;99.90
18593;DHT22;9426;54.118;17.948;2022-08-21T07:52:34;18.90;99.90
18593;DHT22;9426;54.118;17.948;2022-08-21T07:57:58;18.90;99.90
18593;DHT22;9426;54.118;17.948;2022-08-21T08:03:22;19.00;99.90
18593;DHT22;9426;54.118;17.948;2022-08-21T08:08:47;19.10;99.90
18593;DHT22;9426;54.118;17.948;2022-08-21T08:14:10;19.10;99.90
18593;DHT22;9426;54.118;17.948;2022-08-21T08:19:34;19.00;99.90
18593;DHT22;9426;54.118;17.948;2022-08-21T08:24:59;19.00;99.90
18593;DHT22;9426;54.118;17.948;2022-08-21T08:30:23;18.90;99.90
18593;DHT22;9426;54.118;17.948;2022-08-21T08:35:49;19.00;99.90
18593;DHT22;9426;54.118;17.948;2022-08-21T08:41:16;19.10;99.90
18593;DHT22;9426;54.118;17.948;2022-08-21T08:46:43;19.10;99.90
18593;DHT22;9426;54.118;17.948;2022-08-21T08:52:20;19.10;99.90
18593;DHT22;9426;54.118;17.948;2022-08-21T08:57:48;19.00;99.90
18593;DHT22;9426;54.118;17.948;2022-08-21T09:03:13;18.90;99.90
18593;DHT22;9426;54.118;17.948;2022-08-21T09:08:49;18.80;99.90
18593;DHT22;9426;54.118;17.948;2022-08-21T09:14:24;18.80;99.90
18593;DHT22;9426;54.118;17.948;2022-08-21T09:19:59;18.70;99.90
18593;DHT22;9426;54.118;17.948;2022-08-21T09:25:27;18.80;99.90
18593;DHT22;9426;54.118;17.948;2022-08-21T09:30:54;18.70;99.90
18593;DHT22;9426;54.118;17.948;2022-08-21T09:36:25;18.60;99.90
18593;DHT22;9426;54.118;17.948;2022-08-21T09:41:56;18.70;99.90
18593;DHT22;9426;54.118;17.948;2022-08-21T09:47:26;18.90;99.90
18593;DHT22;9426;54.118;17.948;2022-08-21T09:52:52;19.10;99.90
18593;DHT22;9426;54.118;17.948;2022-08-21T09:58:16;19.00;99.90
18593;DHT22;9426;54.118;17.948;2022-08-21T10:03:41;18.70;99.90
18593;DHT22;9426;54.118;17.948;2022-08-21T10:09:08;18.50;99.90
18593;DHT22;9426;54.118;17.948;2022-08-21T10:14:42;18.40;99.90
18593;DHT22;9426;54.118;17.948;2022-08-21T10:20:12;18.30;99.90
18593;DHT22;9426;54.118;17.948;2022-08-21T10:25:44;18.20;99.90
18593;DHT22;9426;54.118;17.948;2022-08-21T10:31:16;18.20;99.90
18593;DHT22;9426;54.118;17.948;2022-08-21T10:36:46;18.30;99.90
18593;DHT22;9426;54.118;17.948;2022-08-21T10:42:23;18.80;99.90
18593;DHT22;9426;54.118;17.948;2022-08-21T10:47:53;18.80;99.90
18593;DHT22;9426;54.118;17.948;2022-08-21T10:53:39;18.80;99.90
18593;DHT22;9426;54.118;17.948;2022-08-21T10:59:17;18.60;99.90
18593;DHT22;9426;54.118;17.948;2022-08-21T11:04:50;18.50;99.90
18593;DHT22;9426;54.118;17.948;2022-08-21T11:10:23;18.10;99.90
18593;DHT22;9426;54.118;17.948;2022-08-21T11:15:52;17.90;99.90
18593;DHT22;9426;54.118;17.948;2022-08-21T11:21:35;17.80;99.90
18593;DHT22;9426;54.118;17.948;2022-08-21T11:27:06;17.80;99.90
18593;DHT22;9426;54.118;17.948;2022-08-21T11:32:58;17.80;99.90
18593;DHT22;9426;54.118;17.948;2022-08-21T11:38:28;17.70;99.90
18593;DHT22;9426;54.118;17.948;2022-08-21T11:44:02;17.60;99.90
18593;DHT22;9426;54.118;17.948;2022-08-21T11:49:48;17.50;99.90
18593;DHT22;9426;54.118;17.948;2022-08-21T11:55:16;17.40;99.90
18593;DHT22;9426;54.118;17.948;2022-08-21T12:00:45;17.30;99.90
18593;DHT22;9426;54.118;17.948;2022-08-21T12:06:12;17.20;99.90
18593;DHT22;9426;54.118;17.948;2022-08-21T12:11:46;17.30;99.90
18593;DHT22;9426;54.118;17.948;2022-08-21T12:17:20;17.40;99.90
18593;DHT22;9426;54.118;17.948;2022-08-21T12:22:51;17.50;99.90
18593;DHT22;9426;54.118;17.948;2022-08-21T12:28:21;17.60;99.90
18593;DHT22;9426;54.118;17.948;2022-08-21T12:33:52;17.60;99.90
18593;DHT22;9426;54.118;17.948;2022-08-21T12:39:22;17.70;99.90
18593;DHT22;9426;54.118;17.948;2022-08-21T12:44:50;17.60;99.90
18593;DHT22;9426;54.118;17.948;2022-08-21T12:50:21;18.00;99.90
18593;DHT22;9426;54.118;17.948;2022-08-21T12:55:46;18.10;99.90
18593;DHT22;9426;54.118;17.948;2022-08-21T13:01:19;18.20;99.90
18593;DHT22;9426;54.118;17.948;2022-08-21T13:06:49;18.10;99.90
18593;DHT22;9426;54.118;17.948;2022-08-21T13:12:15;18.00;99.90
18593;DHT22;9426;54.118;17.948;2022-08-21T13:17:43;18.10;99.90
18593;DHT22;9426;54.118;17.948;2022-08-21T13:23:23;18.30;99.90
18593;DHT22;9426;54.118;17.948;2022-08-21T13:28:47;18.20;99.90
18593;DHT22;9426;54.118;17.948;2022-08-21T13:34:11;18.60;99.90
18593;DHT22;9426;54.118;17.948;2022-08-21T13:39:36;19.10;99.90
18593;DHT22;9426;54.118;17.948;2022-08-21T13:45:01;19.10;99.90
18593;DHT22;9426;54.118;17.948;2022-08-21T13:50:25;18.90;99.90
18593;DHT22;9426;54.118;17.948;2022-08-21T13:55:50;18.80;99.90
18593;DHT22;9426;54.118;17.948;2022-08-21T14:01:21;18.60;99.90
18593;DHT22;9426;54.118;17.948;2022-08-21T14:06:45;18.80;99.90
18593;DHT22;9426;54.118;17.948;2022-08-21T14:12:15;19.10;99.90
18593;DHT22;9426;54.118;17.948;2022-08-21T14:17:40;19.20;99.90
18593;DHT22;9426;54.118;17.948;2022-08-21T14:23:05;19.20;99.90
18593;DHT22;9426;54.118;17.948;2022-08-21T14:28:33;19.30;99.90
18593;DHT22;9426;54.118;17.948;2022-08-21T14:33:57;18.90;99.90
18593;DHT22;9426;54.118;17.948;2022-08-21T14:39:20;18.80;99.90
18593;DHT22;9426;54.118;17.948;2022-08-21T14:44:46;18.90;99.90
18593;DHT22;9426;54.118;17.948;2022-08-21T14:50:10;18.80;99.90
18593;DHT22;9426;54.118;17.948;2022-08-21T14:55:34;18.80;99.90
18593;DHT22;9426;54.118;17.948;2022-08-21T15:01:20;18.80;99.90
18593;DHT22;9426;54.118;17.948;2022-08-21T15:06:43;18.80;99.90
18593;DHT22;9426;54.118;17.948;2022-08-21T15:12:07;18.60;99.90
18593;DHT22;9426;54.118;17.948;2022-08-21T15:17:33;18.40;99.90
18593;DHT22;9426;54.118;17.948;2022-08-21T15:22:56;18.10;99.90
18593;DHT22;9426;54.118;17.948;2022-08-21T15:28:20;17.90;99.90
18593;DHT22;9426;54.118;17.948;2022-08-21T15:33:46;17.70;99.90
18593;DHT22;9426;54.118;17.948;2022-08-21T15:39:09;17.50;99.90
18593;DHT22;9426;54.118;17.948;2022-08-21T15:44:33;17.40;99.90
18593;DHT22;9426;54.118;17.948;2022-08-21T15:49:57;17.40;99.90
18593;DHT22;9426;54.118;17.948;2022-08-21T15:55:21;17.30;99.90
18593;DHT22;9426;54.118;17.948;2022-08-21T16:00:45;17.20;99.90
18593;DHT22;9426;54.118;17.948;2022-08-21T16:06:10;17.10;99.90
18593;DHT22;9426;54.118;17.948;2022-08-21T16:11:33;17.10;99.90
18593;DHT22;9426;54.118;17.948;2022-08-21T16:16:57;17.10;99.90
18593;DHT22;9426;54.118;17.948;2022-08-21T16:22:22;17.10;99.90
18593;DHT22;9426;54.118;17.948;2022-08-21T16:27:48;17.00;99.90
18593;DHT22;9426;54.118;17.948;2022-08-21T16:33:21;17.10;99.90
18593;DHT22;9426;54.118;17.948;2022-08-21T16:38:47;17.10;99.90
18593;DHT22;9426;54.118;17.948;2022-08-21T16:44:11;17.00;99.90
18593;DHT22;9426;54.118;17.948;2022-08-21T16:49:34;16.90;99.90
18593;DHT22;9426;54.118;17.948;2022-08-21T16:54:59;16.80;99.90
18593;DHT22;9426;54.118;17.948;2022-08-21T17:00:23;16.80;99.90
18593;DHT22;9426;54.118;17.948;2022-08-21T17:05:47;16.80;99.90
18593;DHT22;9426;54.118;17.948;2022-08-21T17:11:15;16.70;99.90
18593;DHT22;9426;54.118;17.948;2022-08-21T17:16:45;16.60;99.90
18593;DHT22;9426;54.118;17.948;2022-08-21T17:22:10;16.60;99.90
18593;DHT22;9426;54.118;17.948;2022-08-21T17:27:34;16.50;99.90
18593;DHT22;9426;54.118;17.948;2022-08-21T17:32:59;16.40;99.90
18593;DHT22;9426;54.118;17.948;2022-08-21T17:38:22;16.40;99.90
18593;DHT22;9426;54.118;17.948;2022-08-21T17:43:48;16.30;99.90
18593;DHT22;9426;54.118;17.948;2022-08-21T17:49:12;16.20;99.90
18593;DHT22;9426;54.118;17.948;2022-08-21T17:54:37;16.20;99.90
18593;DHT22;9426;54.118;17.948;2022-08-21T18:00:05;16.10;99.90
18593;DHT22;9426;54.118;17.948;2022-08-21T18:05:32;16.10;99.90
18593;DHT22;9426;54.118;17.948;2022-08-21T18:10:55;16.10;99.90
18593;DHT22;9426;54.118;17.948;2022-08-21T18:16:21;16.00;99.90
18593;DHT22;9426;54.118;17.948;2022-08-21T18:21:45;16.10;99.90
18593;DHT22;9426;54.118;17.948;2022-08-21T18:27:09;16.10;99.90
18593;DHT22;9426;54.118;17.948;2022-08-21T18:32:35;16.10;99.90
18593;DHT22;9426;54.118;17.948;2022-08-21T18:37:59;16.10;99.90
18593;DHT22;9426;54.118;17.948;2022-08-21T18:43:22;16.10;99.90
18593;DHT22;9426;54.118;17.948;2022-08-21T18:48:47;16.10;99.90
18593;DHT22;9426;54.118;17.948;2022-08-21T18:54:11;16.00;99.90
18593;DHT22;9426;54.118;17.948;2022-08-21T18:59:34;16.10;99.90
18593;DHT22;9426;54.118;17.948;2022-08-21T19:05:00;16.10;99.90
18593;DHT22;9426;54.118;17.948;2022-08-21T19:10:24;16.00;99.90
18593;DHT22;9426;54.118;17.948;2022-08-21T19:15:50;16.00;99.90
18593;DHT22;9426;54.118;17.948;2022-08-21T19:21:16;16.00;99.90
18593;DHT22;9426;54.118;17.948;2022-08-21T19:26:40;15.90;99.90
18593;DHT22;9426;54.118;17.948;2022-08-21T19:32:05;15.90;99.90
18593;DHT22;9426;54.118;17.948;2022-08-21T19:37:30;15.90;99.90
18593;DHT22;9426;54.118;17.948;2022-08-21T19:42:53;15.90;99.90
18593;DHT22;9426;54.118;17.948;2022-08-21T19:48:17;15.80;99.90
18593;DHT22;9426;54.118;17.948;2022-08-21T19:53:42;15.80;99.90
18593;DHT22;9426;54.118;17.948;2022-08-21T19:59:06;15.80;99.90
18593;DHT22;9426;54.118;17.948;2022-08-21T20:04:29;15.80;99.90
18593;DHT22;9426;54.118;17.948;2022-08-21T20:09:55;15.80;99.90
18593;DHT22;9426;54.118;17.948;2022-08-21T20:15:20;15.80;99.90
18593;DHT22;9426;54.118;17.948;2022-08-21T20:20:44;15.80;99.90
18593;DHT22;9426;54.118;17.948;2022-08-21T20:26:10;15.80;99.90
18593;DHT22;9426;54.118;17.948;2022-08-21T20:31:34;15.80;99.90
18593;DHT22;9426;54.118;17.948;2022-08-21T20:36:58;15.70;99.90
18593;DHT22;9426;54.118;17.948;2022-08-21T20:42:23;15.60;99.90
18593;DHT22;9426;54.118;17.948;2022-08-21T20:47:47;15.60;99.90
18593;DHT22;9426;54.118;17.948;2022-08-21T20:53:13;15.50;99.90
18593;DHT22;9426;54.118;17.948;2022-08-21T20:58:51;15.40;99.90
18593;DHT22;9426;54.118;17.948;2022-08-21T21:04:25;15.40;99.90
18593;DHT22;9426;54.118;17.948;2022-08-21T21:09:53;15.40;99.90
18593;DHT22;9426;54.118;17.948;2022-08-21T21:15:23;15.30;99.90
18593;DHT22;9426;54.118;17.948;2022-08-21T21:20:51;15.30;99.90
18593;DHT22;9426;54.118;17.948;2022-08-21T21:26:24;15.30;99.90
18593;DHT22;9426;54.118;17.948;2022-08-21T21:31:53;15.30;99.90
18593;DHT22;9426;54.118;17.948;2022-08-21T21:37:23;15.20;99.90
18593;DHT22;9426;54.118;17.948;2022-08-21T21:42:53;15.10;99.90
18593;DHT22;9426;54.118;17.948;2022-08-21T21:48:25;15.10;99.90
18593;DHT22;9426;54.118;17.948;2022-08-21T21:53:58;15.20;99.90
18593;DHT22;9426;54.118;17.948;2022-08-21T21:59:36;15.20;99.90
18593;DHT22;9426;54.118;17.948;2022-08-21T22:05:20;15.30;99.90
18593;DHT22;9426;54.118;17.948;2022-08-21T22:10:56;15.20;99.90
18593;DHT22;9426;54.118;17.948;2022-08-21T22:16:22;15.30;99.90
18593;DHT22;9426;54.118;17.948;2022-08-21T22:21:51;15.30;99.90
18593;DHT22;9426;54.118;17.948;2022-08-21T22:27:19;15.30;99.90
18593;DHT22;9426;54.118;17.948;2022-08-21T22:32:45;15.30;99.90
18593;DHT22;9426;54.118;17.948;2022-08-21T22:38:19;15.30;99.90
18593;DHT22;9426;54.118;17.948;2022-08-21T22:43:55;15.30;99.90
18593;DHT22;9426;54.118;17.948;2022-08-21T22:49:29;15.30;99.90
18593;DHT22;9426;54.118;17.948;2022-08-21T22:54:58;15.30;99.90
18593;DHT22;9426;54.118;17.948;2022-08-21T23:00:37;15.30;99.90
18593;DHT22;9426;54.118;17.948;2022-08-21T23:06:04;15.30;99.90
18593;DHT22;9426;54.118;17.948;2022-08-21T23:11:41;15.30;99.90
18593;DHT22;9426;54.118;17.948;2022-08-21T23:17:10;15.30;99.90
18593;DHT22;9426;54.118;17.948;2022-08-21T23:22:38;15.20;99.90
18593;DHT22;9426;54.118;17.948;2022-08-21T23:28:21;15.20;99.90
18593;DHT22;9426;54.118;17.948;2022-08-21T23:34:03;15.20;99.90
18593;DHT22;9426;54.118;17.948;2022-08-21T23:39:39;15.10;99.90
18593;DHT22;9426;54.118;17.948;2022-08-21T23:45:16;15.20;99.90
18593;DHT22;9426;54.118;17.948;2022-08-21T23:50:47;15.10;99.90
18593;DHT22;9426;54.118;17.948;2022-08-21T23:56:22;15.10;99.90
